createdAt,value
2022-11-23T00:02:12.719Z,11.80
2022-11-23T00:04:41.621Z,11.84
2022-11-23T00:07:10.544Z,11.71
2022-11-23T00:09:39.511Z,11.84
2022-11-23T00:12:08.562Z,11.71
2022-11-23T00:14:37.396Z,11.73
2022-11-23T00:17:06.249Z,11.83
2022-11-23T00:19:36.488Z,12.01
2022-11-23T00:22:05.669Z,11.95
2022-11-23T00:24:34.541Z,11.77
2022-11-23T00:27:03.795Z,12.02
2022-11-23T00:29:32.933Z,12.09
2022-11-23T00:32:02.038Z,12.07
2022-11-23T00:34:30.858Z,12.14
2022-11-23T00:37:01.137Z,12.12
2022-11-23T00:39:30.270Z,12.11
2022-11-23T00:41:59.379Z,12.20
2022-11-23T00:44:28.271Z,12.15
2022-11-23T00:46:58.452Z,12.23
2022-11-23T00:49:29.698Z,12.19
2022-11-23T00:52:00.025Z,12.20
2022-11-23T00:54:29.725Z,12.27
2022-11-23T00:56:58.569Z,12.25
2022-11-23T00:59:29.890Z,12.29
2022-11-23T01:01:59.100Z,12.08
2022-11-23T01:04:29.255Z,12.32
2022-11-23T01:07:02.048Z,12.19
2022-11-23T01:09:31.197Z,12.28
2022-11-23T01:12:00.719Z,12.32
2022-11-23T01:14:29.555Z,12.49
2022-11-23T01:16:58.482Z,12.38
2022-11-23T01:19:27.973Z,12.46
2022-11-23T01:21:56.883Z,12.43
2022-11-23T01:24:28.321Z,12.41
2022-11-23T01:26:57.396Z,12.60
2022-11-23T01:29:26.425Z,12.68
2022-11-23T01:31:55.282Z,12.67
2022-11-23T01:34:24.226Z,12.61
2022-11-23T01:36:53.420Z,12.68
2022-11-23T01:39:22.261Z,12.57
2022-11-23T01:41:52.598Z,12.50
2022-11-23T01:44:32.848Z,12.60
2022-11-23T01:47:03.391Z,12.58
2022-11-23T01:49:36.914Z,12.67
2022-11-23T01:52:12.959Z,12.42
2022-11-23T01:54:47.197Z,12.39
2022-11-23T01:57:22.688Z,12.55
2022-11-23T01:59:53.084Z,12.52
2022-11-23T02:02:22.199Z,12.67
2022-11-23T02:04:56.274Z,12.62
2022-11-23T02:07:26.619Z,12.53
2022-11-23T02:09:55.797Z,12.41
2022-11-23T02:12:26.168Z,12.20
2022-11-23T02:14:55.423Z,12.35
2022-11-23T02:17:24.312Z,12.71
2022-11-23T02:20:04.335Z,12.33
2022-11-23T02:22:40.883Z,12.54
2022-11-23T02:25:22.351Z,12.21
2022-11-23T02:27:53.362Z,12.29
2022-11-23T02:30:22.188Z,12.14
2022-11-23T02:32:54.016Z,12.28
2022-11-23T02:35:23.161Z,12.10
2022-11-23T02:37:53.566Z,12.16
2022-11-23T02:40:29.157Z,12.53
2022-11-23T02:43:00.720Z,12.63
2022-11-23T02:45:37.294Z,12.58
2022-11-23T02:48:06.991Z,12.62
2022-11-23T02:50:36.013Z,12.55
2022-11-23T02:53:04.912Z,12.82
2022-11-23T02:55:34.397Z,12.71
2022-11-23T02:58:06.537Z,11.99
2022-11-23T03:00:35.800Z,12.24
2022-11-23T03:03:05.495Z,12.26
2022-11-23T03:05:35.426Z,12.41
2022-11-23T03:08:07.553Z,12.39
2022-11-23T03:10:36.683Z,12.57
2022-11-23T03:13:07.027Z,12.73
2022-11-23T03:15:37.791Z,12.58
2022-11-23T03:18:07.690Z,12.66
2022-11-23T03:20:37.259Z,12.38
2022-11-23T03:23:07.054Z,12.31
2022-11-23T03:25:36.008Z,12.32
2022-11-23T03:28:08.112Z,11.97
2022-11-23T03:30:37.063Z,11.59
2022-11-23T03:33:07.945Z,11.18
2022-11-23T03:35:39.064Z,10.76
2022-11-23T03:38:23.394Z,10.67
2022-11-23T03:40:53.598Z,10.60
2022-11-23T03:43:46.430Z,10.59
2022-11-23T03:46:15.368Z,10.47
2022-11-23T03:48:44.354Z,10.37
2022-11-23T03:51:13.327Z,10.35
2022-11-23T03:53:42.324Z,10.80
2022-11-23T03:56:11.261Z,10.53
2022-11-23T03:58:44.600Z,10.50
2022-11-23T04:01:17.542Z,10.46
2022-11-23T04:03:49.293Z,10.26
2022-11-23T04:06:25.980Z,10.41
2022-11-23T04:09:04.187Z,10.44
2022-11-23T04:11:45.528Z,10.62
2022-11-23T04:40:11.718Z,12.93
2022-11-23T04:43:00.493Z,13.09
2022-11-23T04:45:32.171Z,13.13
2022-11-23T04:48:06.438Z,13.13
2022-11-23T04:50:40.447Z,13.24
2022-11-23T04:53:10.867Z,13.11
2022-11-23T04:55:47.836Z,12.95
2022-11-23T04:58:18.310Z,12.93
2022-11-23T05:00:51.663Z,13.10
2022-11-23T05:03:21.341Z,13.03
2022-11-23T05:05:51.240Z,12.93
2022-11-23T05:08:20.083Z,12.85
2022-11-23T05:11:25.481Z,12.57
2022-11-23T05:13:54.405Z,12.60
2022-11-23T05:16:23.363Z,12.36
2022-11-23T05:18:52.261Z,12.37
2022-11-23T05:21:21.418Z,12.32
2022-11-23T05:23:51.094Z,12.18
2022-11-23T05:26:21.799Z,11.82
2022-11-23T05:28:52.352Z,11.95
2022-11-23T05:31:21.214Z,12.48
2022-11-23T05:33:50.695Z,12.02
2022-11-23T05:36:32.685Z,12.43
2022-11-23T05:39:01.616Z,12.38
2022-11-23T05:41:34.306Z,12.46
2022-11-23T05:44:08.344Z,12.71
2022-11-23T05:46:37.196Z,12.83
2022-11-23T05:49:06.056Z,12.73
2022-11-23T05:51:39.450Z,12.78
2022-11-23T05:54:08.379Z,12.75
2022-11-23T05:56:47.812Z,12.81
2022-11-23T05:59:21.604Z,12.82
2022-11-23T06:01:55.996Z,12.83
2022-11-23T06:04:29.621Z,12.83
2022-11-23T06:07:01.234Z,12.83
2022-11-23T06:09:38.051Z,12.83
2022-11-23T06:12:10.666Z,12.87
2022-11-23T06:14:41.310Z,12.67
2022-11-23T06:17:10.397Z,12.88
2022-11-23T06:19:46.067Z,12.81
2022-11-23T06:22:15.423Z,12.77
2022-11-23T06:24:56.711Z,12.71
2022-11-23T06:27:34.424Z,12.48
2022-11-23T06:30:09.947Z,12.66
2022-11-23T06:32:39.786Z,13.37
2022-11-23T06:35:09.230Z,13.13
2022-11-23T06:37:41.993Z,13.01
2022-11-23T06:40:12.392Z,12.36
2022-11-23T06:42:42.369Z,12.61
2022-11-23T06:45:21.710Z,12.67
2022-11-23T06:47:55.965Z,12.03
2022-11-23T06:50:25.118Z,12.35
2022-11-23T06:52:57.525Z,12.13
2022-11-23T06:55:43.716Z,11.98
2022-11-23T06:58:15.080Z,11.65
2022-11-23T07:00:46.268Z,12.16
2022-11-23T07:03:21.429Z,12.18
2022-11-23T07:05:53.649Z,11.89
2022-11-23T07:08:24.415Z,11.31
2022-11-23T07:11:00.555Z,11.94
2022-11-23T07:13:30.835Z,11.87
2022-11-23T07:16:02.013Z,11.72
2022-11-23T07:18:30.937Z,12.04
2022-11-23T07:21:02.451Z,12.29
2022-11-23T07:23:31.637Z,12.41
2022-11-23T07:26:00.612Z,12.50
2022-11-23T07:28:30.495Z,12.49
2022-11-23T07:31:00.784Z,12.58
2022-11-23T07:33:30.614Z,12.50
2022-11-23T07:36:02.452Z,12.64
2022-11-23T07:38:32.540Z,12.97
2022-11-23T07:41:04.123Z,13.12
2022-11-23T07:44:00.081Z,13.02
2022-11-23T07:46:31.183Z,13.29
2022-11-23T07:49:02.294Z,13.16
2022-11-23T07:51:31.373Z,13.10
2022-11-23T07:54:00.232Z,13.00
2022-11-23T07:56:29.904Z,12.97
2022-11-23T07:58:58.758Z,13.09
2022-11-23T08:01:27.696Z,13.05
2022-11-23T08:03:58.009Z,12.75
2022-11-23T08:06:26.945Z,13.25
2022-11-23T08:08:56.932Z,13.24
2022-11-23T08:11:25.973Z,13.23
2022-11-23T08:13:55.021Z,13.75
2022-11-23T08:16:23.843Z,14.24
2022-11-23T08:18:52.780Z,14.16
2022-11-23T08:21:23.370Z,13.84
2022-11-23T08:23:52.241Z,13.63
2022-11-23T08:26:21.163Z,13.66
2022-11-23T08:28:50.032Z,13.88
2022-11-23T08:31:18.907Z,14.62
2022-11-23T08:33:47.783Z,14.97
2022-11-23T08:36:16.647Z,15.05
2022-11-23T08:38:47.132Z,14.91
2022-11-23T08:41:18.198Z,15.20
2022-11-23T08:43:47.041Z,15.61
2022-11-23T08:46:16.337Z,15.75
2022-11-23T08:48:45.253Z,14.66
2022-11-23T08:51:14.232Z,14.67
2022-11-23T08:53:43.228Z,14.56
2022-11-23T08:56:13.541Z,15.10
2022-11-23T08:58:42.409Z,15.16
2022-11-23T09:01:11.585Z,14.68
2022-11-23T09:03:40.989Z,14.59
2022-11-23T09:06:10.603Z,14.80
2022-11-23T09:08:40.057Z,15.03
2022-11-23T09:11:13.317Z,15.49
2022-11-23T09:13:43.535Z,15.58
2022-11-23T09:16:12.447Z,15.95
2022-11-23T09:18:41.728Z,16.25
2022-11-23T09:21:11.951Z,16.31
2022-11-23T09:23:40.791Z,15.68
2022-11-23T09:26:10.583Z,15.56
2022-11-23T09:28:44.458Z,15.86
2022-11-23T09:31:15.224Z,15.21
2022-11-23T09:33:44.165Z,15.19
2022-11-23T09:36:13.056Z,15.54
2022-11-23T09:38:56.206Z,15.70
2022-11-23T09:41:51.138Z,15.44
2022-11-23T09:44:25.808Z,16.14
2022-11-23T09:47:16.403Z,16.58
2022-11-23T09:49:53.963Z,17.13
2022-11-23T09:52:25.244Z,16.31
2022-11-23T09:54:57.208Z,15.56
2022-11-23T09:57:30.864Z,15.24
2022-11-23T10:00:03.447Z,16.20
2022-11-23T10:02:41.085Z,15.90
2022-11-23T10:05:16.984Z,16.64
2022-11-23T10:07:57.868Z,15.95
2022-11-23T10:10:39.551Z,16.50
2022-11-23T10:13:23.210Z,17.22
2022-11-23T10:16:07.450Z,17.41
2022-11-23T10:18:47.586Z,16.96
2022-11-23T10:21:25.256Z,16.69
2022-11-23T10:23:56.509Z,16.74
2022-11-23T10:26:30.771Z,16.22
2022-11-23T10:29:12.744Z,16.32
2022-11-23T10:31:45.015Z,15.42
2022-11-23T10:34:17.361Z,15.67
2022-11-23T10:36:46.328Z,15.16
2022-11-23T10:39:24.119Z,14.88
2022-11-23T10:41:54.461Z,14.69
2022-11-23T10:44:32.086Z,15.17
2022-11-23T10:47:01.996Z,14.85
2022-11-23T10:49:33.482Z,14.55
2022-11-23T10:52:05.641Z,14.23
2022-11-23T10:54:36.924Z,14.11
2022-11-23T10:57:30.891Z,14.01
2022-11-23T11:00:02.042Z,14.67
2022-11-23T11:02:40.182Z,14.60
2022-11-23T11:05:46.399Z,14.89
2022-11-23T11:08:16.945Z,15.44
2022-11-23T11:10:50.567Z,15.60
2022-11-23T11:13:31.130Z,15.97
2022-11-23T11:16:03.213Z,15.84
2022-11-23T11:18:34.782Z,15.77
2022-11-23T11:21:08.250Z,15.08
2022-11-23T11:23:42.081Z,15.51
2022-11-23T11:26:20.008Z,16.65
2022-11-23T11:28:51.575Z,17.13
2022-11-23T11:31:49.827Z,16.43
2022-11-23T11:34:23.675Z,17.64
2022-11-23T11:37:03.368Z,17.85
2022-11-23T11:39:36.843Z,17.58
2022-11-23T11:42:10.194Z,17.37
2022-11-23T11:44:42.474Z,18.09
2022-11-23T11:47:28.537Z,18.85
2022-11-23T11:50:03.344Z,19.33
2022-11-23T11:52:39.187Z,19.57
2022-11-23T11:55:14.580Z,20.03
2022-11-23T11:57:46.976Z,20.56
2022-11-23T12:00:18.991Z,20.49
2022-11-23T12:03:00.408Z,21.01
2022-11-23T12:05:38.057Z,20.21
2022-11-23T12:08:14.174Z,20.44
2022-11-23T12:10:48.526Z,18.42
2022-11-23T12:13:20.816Z,19.21
2022-11-23T12:15:56.128Z,19.26
2022-11-23T12:18:31.604Z,19.67
2022-11-23T12:21:05.357Z,19.77
2022-11-23T12:23:50.194Z,20.01
2022-11-23T12:26:27.699Z,20.38
2022-11-23T12:29:25.190Z,18.47
2022-11-23T12:32:04.486Z,17.61
2022-11-23T12:34:58.277Z,18.60
2022-11-23T12:37:40.993Z,19.05
2022-11-23T12:40:29.949Z,19.14
2022-11-23T12:43:03.832Z,19.31
2022-11-23T12:45:46.641Z,19.95
2022-11-23T12:48:31.521Z,20.18
2022-11-23T12:51:11.077Z,20.27
2022-11-23T12:53:54.171Z,18.79
2022-11-23T12:56:44.720Z,18.70
2022-11-23T12:59:15.328Z,17.83
2022-11-23T13:01:47.906Z,17.45
2022-11-23T13:04:38.241Z,16.66
2022-11-23T13:07:49.151Z,16.27
2022-11-23T13:10:48.954Z,16.00
2022-11-23T13:13:50.842Z,15.43
2022-11-23T13:16:54.864Z,14.89
2022-11-23T13:19:41.716Z,15.37
2022-11-23T13:22:15.804Z,15.38
2022-11-23T13:25:03.252Z,14.93
2022-11-23T13:27:56.533Z,14.84
2022-11-23T13:30:51.881Z,14.85
2022-11-23T13:33:34.454Z,14.95
2022-11-23T13:36:11.470Z,14.90
2022-11-23T13:38:45.034Z,14.72
2022-11-23T13:41:53.863Z,14.86
2022-11-23T13:44:26.264Z,14.95
2022-11-23T13:47:02.383Z,15.18
2022-11-23T13:49:33.681Z,15.10
2022-11-23T13:52:08.508Z,15.01
2022-11-23T13:54:39.837Z,15.17
2022-11-23T13:57:14.521Z,15.21
2022-11-23T13:59:43.365Z,14.01
2022-11-23T14:02:31.570Z,14.09
2022-11-23T14:05:36.022Z,14.60
2022-11-23T14:08:06.225Z,14.94
2022-11-23T14:10:35.921Z,14.90
2022-11-23T14:13:15.795Z,15.44
2022-11-23T14:15:53.824Z,15.50
2022-11-23T14:18:45.920Z,15.37
2022-11-23T14:21:19.454Z,15.56
2022-11-23T14:24:15.546Z,15.63
2022-11-23T14:27:04.157Z,15.80
2022-11-23T14:30:06.895Z,15.79
2022-11-23T14:32:49.035Z,15.92
2022-11-23T14:35:28.078Z,15.57
2022-11-23T14:38:14.063Z,15.56
2022-11-23T14:40:54.375Z,15.38
2022-11-23T14:43:24.029Z,15.31
2022-11-23T14:45:53.335Z,15.24
2022-11-23T14:48:23.524Z,15.02
2022-11-23T14:50:59.146Z,14.88
2022-11-23T14:53:31.627Z,14.96
2022-11-23T14:56:02.596Z,14.95
2022-11-23T14:58:35.814Z,14.88
2022-11-23T15:01:05.523Z,15.08
2022-11-23T15:03:50.332Z,14.90
2022-11-23T15:06:26.662Z,14.94
2022-11-23T15:09:05.410Z,14.81
2022-11-23T15:11:37.673Z,14.44
2022-11-23T15:14:19.968Z,14.25
2022-11-23T15:16:49.429Z,14.14
2022-11-23T15:19:20.168Z,14.05
2022-11-23T15:21:50.803Z,13.84
2022-11-23T15:24:23.955Z,13.88
2022-11-23T15:27:09.273Z,14.16
2022-11-23T15:29:41.115Z,14.25
2022-11-23T15:32:33.132Z,14.09
2022-11-23T15:35:06.883Z,13.92
2022-11-23T15:37:45.196Z,13.76
2022-11-23T15:40:15.836Z,13.77
2022-11-23T15:42:45.521Z,13.53
2022-11-23T15:45:35.521Z,13.51
2022-11-23T15:48:06.462Z,13.72
2022-11-23T15:50:35.835Z,13.44
2022-11-23T15:53:09.252Z,13.49
2022-11-23T15:55:39.355Z,13.47
2022-11-23T15:58:10.292Z,13.51
2022-11-23T16:00:39.212Z,13.23
2022-11-23T16:03:30.580Z,12.78
2022-11-23T16:06:25.822Z,13.09
2022-11-23T16:08:56.124Z,13.13
2022-11-23T16:11:31.092Z,13.43
2022-11-23T16:14:17.750Z,13.33
2022-11-23T16:16:48.599Z,13.22
2022-11-23T16:19:30.785Z,13.13
2022-11-23T16:22:03.376Z,12.93
2022-11-23T16:24:36.163Z,12.33
2022-11-23T16:27:13.886Z,11.83
2022-11-23T16:29:43.167Z,12.43
2022-11-23T16:32:24.949Z,12.67
2022-11-23T16:34:53.813Z,12.83
2022-11-23T16:37:23.163Z,12.02
2022-11-23T16:39:53.474Z,11.48
2022-11-23T16:42:22.355Z,11.65
2022-11-23T16:44:51.178Z,11.83
2022-11-23T16:47:25.427Z,12.02
2022-11-23T16:49:54.988Z,11.60
2022-11-23T16:52:24.685Z,11.50
2022-11-23T16:54:55.009Z,11.53
2022-11-23T16:57:32.271Z,11.58
2022-11-23T17:00:05.185Z,11.45
2022-11-23T17:02:34.434Z,11.56
2022-11-23T17:05:03.932Z,11.55
2022-11-23T17:07:32.801Z,11.29
2022-11-23T17:10:03.355Z,11.38
2022-11-23T17:12:32.337Z,11.49
2022-11-23T17:15:02.001Z,11.52
2022-11-23T17:17:31.001Z,11.71
2022-11-23T17:20:04.111Z,11.58
2022-11-23T17:22:33.512Z,11.43
2022-11-23T17:25:04.090Z,11.46
2022-11-23T17:27:36.300Z,12.17
2022-11-23T17:30:12.676Z,12.22
2022-11-23T17:32:41.722Z,11.77
2022-11-23T17:35:10.690Z,11.79
2022-11-23T17:37:39.648Z,11.98
2022-11-23T17:40:15.388Z,11.89
2022-11-23T17:42:44.362Z,11.48
2022-11-23T17:45:14.138Z,11.15
2022-11-23T17:47:44.841Z,11.12
2022-11-23T17:50:17.703Z,11.34
2022-11-23T17:52:47.022Z,10.98
2022-11-23T17:55:17.992Z,11.03
2022-11-23T17:57:47.048Z,10.79
2022-11-23T18:00:18.903Z,10.73
2022-11-23T18:02:48.004Z,10.95
2022-11-23T18:05:21.481Z,11.02
2022-11-23T18:07:51.295Z,10.71
2022-11-23T18:10:21.905Z,10.66
2022-11-23T18:12:50.746Z,10.72
2022-11-23T18:15:19.807Z,10.67
2022-11-23T18:17:48.666Z,10.44
2022-11-23T18:20:18.036Z,10.32
2022-11-23T18:22:46.926Z,10.16
2022-11-23T18:25:16.210Z,10.25
2022-11-23T18:27:46.840Z,10.23
2022-11-23T18:30:17.589Z,10.28
2022-11-23T18:32:46.514Z,10.30
2022-11-23T18:35:15.516Z,10.32
2022-11-23T18:37:44.442Z,10.07
2022-11-23T18:40:14.572Z,9.90
2022-11-23T18:42:43.480Z,9.64
2022-11-23T18:45:13.728Z,9.69
2022-11-23T18:47:42.595Z,9.77
2022-11-23T18:50:11.607Z,9.55
2022-11-23T18:52:40.454Z,9.38
2022-11-23T18:55:09.638Z,9.65
2022-11-23T18:57:38.907Z,9.82
2022-11-23T19:00:10.170Z,9.65
2022-11-23T19:02:40.706Z,9.53
2022-11-23T19:05:09.821Z,9.60
2022-11-23T19:07:38.796Z,9.60
2022-11-23T19:10:08.667Z,9.58
2022-11-23T19:12:37.608Z,9.60
2022-11-23T19:15:07.957Z,9.52
2022-11-23T19:17:36.828Z,9.27
2022-11-23T19:20:09.940Z,9.55
2022-11-23T19:22:38.801Z,9.43
2022-11-23T19:25:09.063Z,9.67
2022-11-23T19:27:38.409Z,9.83
2022-11-23T19:30:09.166Z,9.03
2022-11-23T19:32:38.715Z,9.28
2022-11-23T19:35:09.424Z,9.17
2022-11-23T19:37:38.860Z,9.06
2022-11-23T19:40:09.238Z,8.90
2022-11-23T19:42:38.140Z,9.25
2022-11-23T19:45:08.064Z,9.31
2022-11-23T19:47:36.969Z,9.23
2022-11-23T19:50:06.933Z,8.93
2022-11-23T19:53:10.020Z,8.81
2022-11-23T19:55:26.680Z,8.79
2022-11-23T19:57:55.514Z,8.74
2022-11-23T20:00:24.352Z,8.76
2022-11-23T20:02:53.928Z,8.55
2022-11-23T20:05:22.876Z,8.47
2022-11-23T20:07:53.253Z,8.70
2022-11-23T20:10:22.222Z,8.52
2022-11-23T20:12:51.120Z,8.73
2022-11-23T20:15:20.016Z,8.94
2022-11-23T20:17:49.873Z,9.02
2022-11-23T20:20:19.019Z,9.11
2022-11-23T20:22:47.883Z,8.96
2022-11-23T20:25:18.358Z,8.81
2022-11-23T20:27:47.174Z,8.78
2022-11-23T20:30:16.861Z,9.11
2022-11-23T20:32:48.239Z,8.96
2022-11-23T20:35:20.636Z,8.83
2022-11-23T20:37:49.576Z,8.74
2022-11-23T20:40:20.296Z,8.58
2022-11-23T20:42:49.509Z,8.63
2022-11-23T20:45:18.610Z,8.64
2022-11-23T20:47:48.353Z,8.62
2022-11-23T20:50:17.467Z,8.84
2022-11-23T20:52:46.282Z,9.07
2022-11-23T20:55:20.523Z,9.05
2022-11-23T20:57:51.469Z,9.08
2022-11-23T21:00:21.741Z,8.67
2022-11-23T21:02:51.342Z,8.41
2022-11-23T21:05:20.948Z,8.50
2022-11-23T21:07:50.046Z,8.22
2022-11-23T21:10:36.494Z,7.97
2022-11-23T21:13:24.238Z,8.28
2022-11-23T21:15:53.125Z,7.89
2022-11-23T21:18:22.095Z,7.36
2022-11-23T21:20:56.276Z,7.37
2022-11-23T21:23:25.184Z,7.07
2022-11-23T21:25:54.456Z,7.25
2022-11-23T21:28:24.735Z,7.45
2022-11-23T21:30:53.577Z,7.26
2022-11-23T21:33:22.421Z,7.56
2022-11-23T21:35:51.371Z,7.72
2022-11-23T21:38:23.470Z,7.55
2022-11-23T21:40:57.946Z,7.76
2022-11-23T21:43:28.256Z,7.82
2022-11-23T21:46:01.573Z,7.69
2022-11-23T21:48:30.653Z,7.82
2022-11-23T21:51:03.806Z,7.80
2022-11-23T21:53:33.509Z,7.75
2022-11-23T21:56:04.167Z,7.86
2022-11-23T21:58:34.557Z,7.57
2022-11-23T22:01:05.729Z,7.94
2022-11-23T22:03:38.033Z,7.86
2022-11-23T22:06:07.221Z,7.68
2022-11-23T22:08:40.563Z,7.75
2022-11-23T22:11:13.444Z,7.62
2022-11-23T22:13:45.052Z,7.48
2022-11-23T22:16:20.028Z,7.76
2022-11-23T22:18:55.346Z,7.79
2022-11-23T22:21:26.605Z,7.98
2022-11-23T22:23:56.100Z,7.77
2022-11-23T22:26:26.264Z,7.58
2022-11-23T22:28:57.855Z,7.62
2022-11-23T22:31:27.754Z,7.78
2022-11-23T22:33:56.867Z,7.67
2022-11-23T22:36:26.228Z,7.15
2022-11-23T22:39:01.057Z,7.25
2022-11-23T22:41:33.400Z,7.20
2022-11-23T22:44:04.388Z,7.09
2022-11-23T22:46:33.553Z,7.27
2022-11-23T22:49:03.440Z,6.80
2022-11-23T22:51:32.511Z,7.27
2022-11-23T22:54:02.213Z,7.40
2022-11-23T22:56:32.292Z,7.56
2022-11-23T22:59:01.377Z,7.82
2022-11-23T23:01:32.396Z,7.74
2022-11-23T23:04:04.045Z,6.96
2022-11-23T23:06:35.238Z,7.44
2022-11-23T23:09:06.195Z,7.22
2022-11-23T23:11:36.714Z,7.29
2022-11-23T23:14:06.122Z,7.13
2022-11-23T23:16:36.594Z,7.01
2022-11-23T23:19:06.362Z,7.13
2022-11-23T23:21:35.357Z,7.25
2022-11-23T23:24:04.432Z,7.03
2022-11-23T23:26:33.423Z,6.77
2022-11-23T23:29:02.491Z,6.93
2022-11-23T23:31:31.628Z,7.04
2022-11-23T23:34:02.398Z,7.14
2022-11-23T23:36:31.437Z,6.83
2022-11-23T23:39:04.710Z,6.89
2022-11-23T23:41:33.807Z,6.72
2022-11-23T23:44:03.007Z,6.89
2022-11-23T23:46:31.955Z,6.61
2022-11-23T23:49:03.342Z,6.91
2022-11-23T23:51:32.345Z,7.07
2022-11-23T23:54:02.343Z,7.27
2022-11-23T23:56:31.417Z,7.32
2022-11-23T23:59:00.454Z,7.14
